sensor_id;sensor_type;location;lat;lon;timestamp;pressure;altitude;pressure_sealevel;temperature;humidity
21664;BME280;10993;52.510;13.456;2022-10-16T00:00:22;-26593.72;;;15.16;100.00
21664;BME280;10993;52.510;13.456;2022-10-16T00:05:22;-26603.38;;;15.48;100.00
21664;BME280;10993;52.510;13.456;2022-10-16T00:10:23;-26613.03;;;15.80;100.00
21664;BME280;10993;52.510;13.456;2022-10-16T00:15:25;-26613.50;;;15.82;100.00
21664;BME280;10993;52.510;13.456;2022-10-16T00:20:25;-26608.34;;;15.65;100.00
21664;BME280;10993;52.510;13.456;2022-10-16T00:25:26;-26619.56;;;16.02;100.00
21664;BME280;10993;52.510;13.456;2022-10-16T00:30:28;-26620.63;;;16.06;100.00
21664;BME280;10993;52.510;13.456;2022-10-16T00:35:30;-26622.97;;;16.13;100.00
21664;BME280;10993;52.510;13.456;2022-10-16T00:40:30;-26626.56;;;16.25;100.00
21664;BME280;10993;52.510;13.456;2022-10-16T00:45:33;-26626.88;;;16.26;100.00
21664;BME280;10993;52.510;13.456;2022-10-16T00:50:36;-26622.34;;;16.11;100.00
21664;BME280;10993;52.510;13.456;2022-10-16T00:55:37;-26627.00;;;16.27;100.00
21664;BME280;10993;52.510;13.456;2022-10-16T01:00:39;-26626.56;;;16.25;100.00
21664;BME280;10993;52.510;13.456;2022-10-16T01:05:44;-26623.91;;;16.16;100.00
21664;BME280;10993;52.510;13.456;2022-10-16T01:10:54;-26624.06;;;16.17;100.00
21664;BME280;10993;52.510;13.456;2022-10-16T01:16:05;-26620.81;;;16.06;100.00
21664;BME280;10993;52.510;13.456;2022-10-16T01:21:10;-26620.03;;;16.03;100.00
21664;BME280;10993;52.510;13.456;2022-10-16T01:26:17;-26616.28;;;15.91;100.00
21664;BME280;10993;52.510;13.456;2022-10-16T01:31:24;-26610.53;;;15.72;100.00
21664;BME280;10993;52.510;13.456;2022-10-16T01:36:28;-26612.69;;;15.79;100.00
21664;BME280;10993;52.510;13.456;2022-10-16T01:41:33;-26612.69;;;15.79;100.00
21664;BME280;10993;52.510;13.456;2022-10-16T01:46:38;-26613.66;;;15.82;100.00
21664;BME280;10993;52.510;13.456;2022-10-16T01:51:40;-26614.25;;;15.84;100.00
21664;BME280;10993;52.510;13.456;2022-10-16T01:56:43;-26611.31;;;15.75;100.00
21664;BME280;10993;52.510;13.456;2022-10-16T02:01:48;-26607.25;;;15.61;100.00
21664;BME280;10993;52.510;13.456;2022-10-16T02:06:52;-26616.28;;;15.91;100.00
21664;BME280;10993;52.510;13.456;2022-10-16T02:11:54;-26616.91;;;15.93;100.00
21664;BME280;10993;52.510;13.456;2022-10-16T02:16:58;-26624.22;;;16.17;100.00
21664;BME280;10993;52.510;13.456;2022-10-16T02:22:02;-26624.22;;;16.17;100.00
21664;BME280;10993;52.510;13.456;2022-10-16T02:27:07;-26626.09;;;16.24;100.00
21664;BME280;10993;52.510;13.456;2022-10-16T02:32:12;-26627.94;;;16.30;100.00
21664;BME280;10993;52.510;13.456;2022-10-16T02:37:14;-26626.25;;;16.24;100.00
21664;BME280;10993;52.510;13.456;2022-10-16T02:42:18;-26630.28;;;16.38;100.00
21664;BME280;10993;52.510;13.456;2022-10-16T02:47:20;-26633.22;;;16.47;100.00
21664;BME280;10993;52.510;13.456;2022-10-16T02:52:20;-26623.75;;;16.16;100.00
21664;BME280;10993;52.510;13.456;2022-10-16T02:57:20;-26626.88;;;16.26;100.00
21664;BME280;10993;52.510;13.456;2022-10-16T03:02:22;-26627.47;;;16.28;100.00
21664;BME280;10993;52.510;13.456;2022-10-16T03:07:23;-26626.25;;;16.24;100.00
21664;BME280;10993;52.510;13.456;2022-10-16T03:12:23;-26622.66;;;16.12;100.00
21664;BME280;10993;52.510;13.456;2022-10-16T03:17:25;-26623.44;;;16.15;100.00
21664;BME280;10993;52.510;13.456;2022-10-16T03:22:25;-26613.50;;;15.82;100.00
21664;BME280;10993;52.510;13.456;2022-10-16T03:27:26;-26616.91;;;15.93;100.00
21664;BME280;10993;52.510;13.456;2022-10-16T03:32:27;-26617.69;;;15.96;100.00
21664;BME280;10993;52.510;13.456;2022-10-16T03:37:28;-26619.09;;;16.00;100.00
21664;BME280;10993;52.510;13.456;2022-10-16T03:42:29;-26613.19;;;15.81;100.00
21664;BME280;10993;52.510;13.456;2022-10-16T03:47:31;-26609.75;;;15.69;100.00
21664;BME280;10993;52.510;13.456;2022-10-16T03:52:33;-26610.38;;;15.72;100.00
21664;BME280;10993;52.510;13.456;2022-10-16T03:57:33;-26605.25;;;15.55;100.00
21664;BME280;10993;52.510;13.456;2022-10-16T04:02:35;-26605.38;;;15.55;100.00
21664;BME280;10993;52.510;13.456;2022-10-16T04:07:35;-26604.31;;;15.51;100.00
21664;BME280;10993;52.510;13.456;2022-10-16T04:12:36;-26605.56;;;15.56;100.00
21664;BME280;10993;52.510;13.456;2022-10-16T04:17:37;-26605.69;;;15.56;100.00
21664;BME280;10993;52.510;13.456;2022-10-16T04:22:38;-26608.34;;;15.65;100.00
21664;BME280;10993;52.510;13.456;2022-10-16T04:27:39;-26605.38;;;15.55;100.00
21664;BME280;10993;52.510;13.456;2022-10-16T04:32:40;-26605.56;;;15.56;100.00
21664;BME280;10993;52.510;13.456;2022-10-16T04:37:41;-26607.09;;;15.61;100.00
21664;BME280;10993;52.510;13.456;2022-10-16T04:42:41;-26602.44;;;15.45;100.00
21664;BME280;10993;52.510;13.456;2022-10-16T04:47:43;-26600.72;;;15.40;100.00
21664;BME280;10993;52.510;13.456;2022-10-16T04:52:43;-26595.28;;;15.22;100.00
21664;BME280;10993;52.510;13.456;2022-10-16T04:57:43;-26597.16;;;15.28;100.00
21664;BME280;10993;52.510;13.456;2022-10-16T05:02:45;-26592.78;;;15.13;100.00
21664;BME280;10993;52.510;13.456;2022-10-16T05:07:46;-26591.06;;;15.08;100.00
21664;BME280;10993;52.510;13.456;2022-10-16T05:12:46;-26581.25;;;14.75;100.00
21664;BME280;10993;52.510;13.456;2022-10-16T05:17:52;-26588.72;;;15.00;100.00
21664;BME280;10993;52.510;13.456;2022-10-16T05:22:52;-26585.63;;;14.90;100.00
21664;BME280;10993;52.510;13.456;2022-10-16T05:27:52;-26586.22;;;14.92;100.00
21664;BME280;10993;52.510;13.456;2022-10-16T05:32:54;-26581.88;;;14.77;100.00
21664;BME280;10993;52.510;13.456;2022-10-16T05:37:55;-26588.09;;;14.98;100.00
21664;BME280;10993;52.510;13.456;2022-10-16T05:42:55;-26582.19;;;14.78;100.00
21664;BME280;10993;52.510;13.456;2022-10-16T05:47:57;-26587.00;;;14.94;100.00
21664;BME280;10993;52.510;13.456;2022-10-16T05:52:57;-26593.72;;;15.16;100.00
21664;BME280;10993;52.510;13.456;2022-10-16T05:57:58;-26603.06;;;15.47;100.00
21664;BME280;10993;52.510;13.456;2022-10-16T06:02:59;-26601.81;;;15.43;100.00
21664;BME280;10993;52.510;13.456;2022-10-16T06:08:00;-26601.03;;;15.41;100.00
21664;BME280;10993;52.510;13.456;2022-10-16T06:13:00;-26600.56;;;15.39;100.00
21664;BME280;10993;52.510;13.456;2022-10-16T06:18:02;-26608.97;;;15.67;100.00
21664;BME280;10993;52.510;13.456;2022-10-16T06:23:02;-26613.03;;;15.80;100.00
21664;BME280;10993;52.510;13.456;2022-10-16T06:28:04;-26610.69;;;15.73;100.00
21664;BME280;10993;52.510;13.456;2022-10-16T06:33:05;-26621.09;;;16.07;100.00
21664;BME280;10993;52.510;13.456;2022-10-16T06:38:06;-26620.03;;;16.03;100.00
21664;BME280;10993;52.510;13.456;2022-10-16T06:43:06;-26630.44;;;16.38;100.00
21664;BME280;10993;52.510;13.456;2022-10-16T06:48:08;-26636.19;;;16.57;100.00
21664;BME280;10993;52.510;13.456;2022-10-16T06:53:08;-26634.16;;;16.50;100.00
21664;BME280;10993;52.510;13.456;2022-10-16T06:58:09;-26638.22;;;16.64;100.00
21664;BME280;10993;52.510;13.456;2022-10-16T07:03:10;-26638.06;;;16.63;100.00
21664;BME280;10993;52.510;13.456;2022-10-16T07:08:11;-26641.47;;;16.75;100.00
21664;BME280;10993;52.510;13.456;2022-10-16T07:13:11;-26664.59;;;17.51;100.00
21664;BME280;10993;52.510;13.456;2022-10-16T07:18:15;-26693.44;;;18.47;100.00
21664;BME280;10993;52.510;13.456;2022-10-16T07:23:16;-26705.19;;;18.86;100.00
21664;BME280;10993;52.510;13.456;2022-10-16T07:28:17;-26709.38;;;19.00;100.00
21664;BME280;10993;52.510;13.456;2022-10-16T07:33:18;-26700.88;;;18.72;100.00
21664;BME280;10993;52.510;13.456;2022-10-16T07:38:19;-26707.53;;;18.94;100.00
21664;BME280;10993;52.510;13.456;2022-10-16T07:43:20;-26713.25;;;19.13;100.00
21664;BME280;10993;52.510;13.456;2022-10-16T07:48:22;-26706.59;;;18.91;100.00
21664;BME280;10993;52.510;13.456;2022-10-16T07:53:23;-26709.84;;;19.02;100.00
21664;BME280;10993;52.510;13.456;2022-10-16T07:58:23;-26704.72;;;18.85;100.00
21664;BME280;10993;52.510;13.456;2022-10-16T08:03:25;-26691.88;;;18.42;100.00
21664;BME280;10993;52.510;13.456;2022-10-16T08:08:26;-26705.81;;;18.89;100.00
21664;BME280;10993;52.510;13.456;2022-10-16T08:13:26;-26705.97;;;18.89;100.00
21664;BME280;10993;52.510;13.456;2022-10-16T08:18:28;-26715.56;;;19.21;100.00
21664;BME280;10993;52.510;13.456;2022-10-16T08:23:28;-26718.81;;;19.32;100.00
21664;BME280;10993;52.510;13.456;2022-10-16T08:28:29;-26720.06;;;19.36;100.00
21664;BME280;10993;52.510;13.456;2022-10-16T08:33:31;-26725.31;;;19.53;100.00
21664;BME280;10993;52.510;13.456;2022-10-16T08:38:34;-26745.69;;;20.22;98.15
21664;BME280;10993;52.510;13.456;2022-10-16T08:43:43;-26746.00;;;20.23;97.01
21664;BME280;10993;52.510;13.456;2022-10-16T08:48:53;-26757.59;;;20.61;94.96
21664;BME280;10993;52.510;13.456;2022-10-16T08:53:56;-26753.41;;;20.47;93.48
21664;BME280;10993;52.510;13.456;2022-10-16T08:58:58;-26750.34;;;20.37;94.09
21664;BME280;10993;52.510;13.456;2022-10-16T09:04:14;-26740.28;;;20.03;95.85
21664;BME280;10993;52.510;13.456;2022-10-16T09:09:42;-26757.44;;;20.61;93.35
21664;BME280;10993;52.510;13.456;2022-10-16T09:15:01;-26800.56;;;22.05;86.64
21664;BME280;10993;52.510;13.456;2022-10-16T09:20:19;-26820.56;;;22.72;77.47
21664;BME280;10993;52.510;13.456;2022-10-16T09:25:23;-26805.50;;;22.22;80.07
21664;BME280;10993;52.510;13.456;2022-10-16T09:30:27;-26805.19;;;22.21;78.25
21664;BME280;10993;52.510;13.456;2022-10-16T09:35:36;-26867.22;;;24.29;70.87
21664;BME280;10993;52.510;13.456;2022-10-16T09:40:38;-26871.06;;;24.42;65.79
21664;BME280;10993;52.510;13.456;2022-10-16T09:45:41;-26868.16;;;24.32;67.95
21664;BME280;10993;52.510;13.456;2022-10-16T09:50:43;-26888.06;;;24.99;61.75
21664;BME280;10993;52.510;13.456;2022-10-16T09:55:51;-26851.59;;;23.76;67.25
21664;BME280;10993;52.510;13.456;2022-10-16T10:00:53;-26837.94;;;23.30;69.16
21664;BME280;10993;52.510;13.456;2022-10-16T10:05:55;-26867.38;;;24.29;64.59
21664;BME280;10993;52.510;13.456;2022-10-16T10:10:55;-26905.66;;;25.58;59.80
21664;BME280;10993;52.510;13.456;2022-10-16T10:15:57;-26879.03;;;24.68;62.40
21664;BME280;10993;52.510;13.456;2022-10-16T10:21:00;-26866.91;;;24.28;63.14
21664;BME280;10993;52.510;13.456;2022-10-16T10:26:05;-26882.38;;;24.80;61.68
21664;BME280;10993;52.510;13.456;2022-10-16T10:31:13;-26878.56;;;24.67;60.58
21664;BME280;10993;52.510;13.456;2022-10-16T10:36:29;-26852.81;;;23.80;65.60
21664;BME280;10993;52.510;13.456;2022-10-16T10:47:18;-26896.63;;;25.28;59.09
21664;BME280;10993;52.510;13.456;2022-10-16T10:52:36;-26925.97;;;26.27;52.64
21664;BME280;10993;52.510;13.456;2022-10-16T10:57:51;-26907.94;;;25.66;54.27
21664;BME280;10993;52.510;13.456;2022-10-16T11:03:04;-26869.38;;;24.36;57.47
21664;BME280;10993;52.510;13.456;2022-10-16T11:08:16;-26895.69;;;25.25;53.49
21664;BME280;10993;52.510;13.456;2022-10-16T11:13:28;-26962.09;;;27.49;45.64
21664;BME280;10993;52.510;13.456;2022-10-16T11:18:42;-26956.31;;;27.29;45.69
21664;BME280;10993;52.510;13.456;2022-10-16T11:23:50;-26925.97;;;26.27;48.64
21664;BME280;10993;52.510;13.456;2022-10-16T11:28:55;-26888.66;;;25.01;51.93
21664;BME280;10993;52.510;13.456;2022-10-16T11:34:01;-26897.06;;;25.29;52.73
21664;BME280;10993;52.510;13.456;2022-10-16T11:39:14;-26899.22;;;25.37;51.62
21664;BME280;10993;52.510;13.456;2022-10-16T11:44:30;-26942.44;;;26.82;48.00
21664;BME280;10993;52.510;13.456;2022-10-16T11:49:33;-26962.41;;;27.50;44.64
21664;BME280;10993;52.510;13.456;2022-10-16T11:54:43;-26911.59;;;25.78;45.75
21664;BME280;10993;52.510;13.456;2022-10-16T11:59:48;-26844.69;;;23.53;52.08
21664;BME280;10993;52.510;13.456;2022-10-16T12:04:51;-26845.44;;;23.56;54.04
21664;BME280;10993;52.510;13.456;2022-10-16T12:10:10;-26842.69;;;23.46;55.06
21664;BME280;10993;52.510;13.456;2022-10-16T12:15:24;-26825.47;;;22.89;56.41
21664;BME280;10993;52.510;13.456;2022-10-16T12:20:27;-26826.56;;;22.92;55.88
21664;BME280;10993;52.510;13.456;2022-10-16T12:25:32;-26818.09;;;22.64;54.77
21664;BME280;10993;52.510;13.456;2022-10-16T12:30:35;-26811.34;;;22.41;56.75
21664;BME280;10993;52.510;13.456;2022-10-16T12:35:44;-26793.66;;;21.82;57.79
21664;BME280;10993;52.510;13.456;2022-10-16T12:40:55;-26785.19;;;21.54;58.87
21664;BME280;10993;52.510;13.456;2022-10-16T12:46:04;-26780.25;;;21.37;59.73
21664;BME280;10993;52.510;13.456;2022-10-16T12:51:21;-26781.47;;;21.41;59.50
21664;BME280;10993;52.510;13.456;2022-10-16T12:56:28;-26771.47;;;21.08;60.69
21664;BME280;10993;52.510;13.456;2022-10-16T13:01:40;-26768.84;;;20.99;60.84
21664;BME280;10993;52.510;13.456;2022-10-16T13:06:48;-26776.25;;;21.24;60.26
21664;BME280;10993;52.510;13.456;2022-10-16T13:12:05;-26773.78;;;21.15;60.69
21664;BME280;10993;52.510;13.456;2022-10-16T13:17:13;-26773.16;;;21.13;59.92
21664;BME280;10993;52.510;13.456;2022-10-16T13:22:21;-26767.00;;;20.93;59.25
21664;BME280;10993;52.510;13.456;2022-10-16T13:27:35;-26773.94;;;21.16;60.39
21664;BME280;10993;52.510;13.456;2022-10-16T13:32:45;-26769.94;;;21.02;60.01
21664;BME280;10993;52.510;13.456;2022-10-16T13:37:46;-26769.78;;;21.02;60.37
21664;BME280;10993;52.510;13.456;2022-10-16T13:42:48;-26780.56;;;21.38;59.88
21664;BME280;10993;52.510;13.456;2022-10-16T13:48:01;-26777.94;;;21.29;59.69
21664;BME280;10993;52.510;13.456;2022-10-16T13:53:05;-26775.47;;;21.21;58.89
21664;BME280;10993;52.510;13.456;2022-10-16T13:58:12;-26768.38;;;20.97;61.18
21664;BME280;10993;52.510;13.456;2022-10-16T14:03:14;-26764.53;;;20.84;61.94
21664;BME280;10993;52.510;13.456;2022-10-16T14:08:16;-26756.50;;;20.58;63.72
21664;BME280;10993;52.510;13.456;2022-10-16T14:13:20;-26750.94;;;20.39;64.24
21664;BME280;10993;52.510;13.456;2022-10-16T14:18:24;-26753.25;;;20.47;63.92
21664;BME280;10993;52.510;13.456;2022-10-16T14:23:29;-26757.44;;;20.61;63.46
21664;BME280;10993;52.510;13.456;2022-10-16T14:28:32;-26752.19;;;20.43;64.37
21664;BME280;10993;52.510;13.456;2022-10-16T14:33:33;-26748.16;;;20.30;65.79
21664;BME280;10993;52.510;13.456;2022-10-16T14:38:34;-26747.25;;;20.27;65.90
21664;BME280;10993;52.510;13.456;2022-10-16T14:43:37;-26743.84;;;20.15;66.78
21664;BME280;10993;52.510;13.456;2022-10-16T14:48:40;-26742.00;;;20.09;67.13
21664;BME280;10993;52.510;13.456;2022-10-16T14:53:41;-26736.75;;;19.92;67.44
21664;BME280;10993;52.510;13.456;2022-10-16T14:58:43;-26733.97;;;19.82;66.41
21664;BME280;10993;52.510;13.456;2022-10-16T15:03:46;-26729.47;;;19.67;66.54
21664;BME280;10993;52.510;13.456;2022-10-16T15:08:47;-26730.25;;;19.70;67.67
21664;BME280;10993;52.510;13.456;2022-10-16T15:13:49;-26728.41;;;19.64;68.57
21664;BME280;10993;52.510;13.456;2022-10-16T15:18:49;-26724.53;;;19.51;68.39
21664;BME280;10993;52.510;13.456;2022-10-16T15:23:49;-26719.28;;;19.33;70.11
21664;BME280;10993;52.510;13.456;2022-10-16T15:28:52;-26712.47;;;19.11;70.19
21664;BME280;10993;52.510;13.456;2022-10-16T15:33:53;-26708.59;;;18.98;71.68
21664;BME280;10993;52.510;13.456;2022-10-16T15:39:01;-26699.63;;;18.68;71.48
21664;BME280;10993;52.510;13.456;2022-10-16T15:44:06;-26698.38;;;18.64;73.55
21664;BME280;10993;52.510;13.456;2022-10-16T15:49:12;-26701.47;;;18.74;71.74
21664;BME280;10993;52.510;13.456;2022-10-16T15:54:13;-26694.66;;;18.51;73.75
21664;BME280;10993;52.510;13.456;2022-10-16T15:59:16;-26689.88;;;18.35;73.23
21664;BME280;10993;52.510;13.456;2022-10-16T16:04:17;-26677.78;;;17.95;74.37
21664;BME280;10993;52.510;13.456;2022-10-16T16:09:18;-26677.78;;;17.95;75.12
21664;BME280;10993;52.510;13.456;2022-10-16T16:14:19;-26672.19;;;17.77;76.11
21664;BME280;10993;52.510;13.456;2022-10-16T16:19:20;-26664.91;;;17.52;77.20
21664;BME280;10993;52.510;13.456;2022-10-16T16:24:21;-26658.38;;;17.31;78.73
21664;BME280;10993;52.510;13.456;2022-10-16T16:29:22;-26658.09;;;17.30;79.11
21664;BME280;10993;52.510;13.456;2022-10-16T16:34:23;-26651.25;;;17.07;80.09
21664;BME280;10993;52.510;13.456;2022-10-16T16:39:24;-26649.69;;;17.02;81.17
21664;BME280;10993;52.510;13.456;2022-10-16T16:44:26;-26642.09;;;16.77;81.66
21664;BME280;10993;52.510;13.456;2022-10-16T16:49:26;-26645.03;;;16.86;81.00
21664;BME280;10993;52.510;13.456;2022-10-16T16:54:27;-26637.59;;;16.62;81.79
21664;BME280;10993;52.510;13.456;2022-10-16T16:59:28;-26639.75;;;16.69;82.55
21664;BME280;10993;52.510;13.456;2022-10-16T17:04:32;-26632.00;;;16.43;82.70
21664;BME280;10993;52.510;13.456;2022-10-16T17:09:33;-26633.84;;;16.49;82.75
21664;BME280;10993;52.510;13.456;2022-10-16T17:14:34;-26633.84;;;16.49;82.21
21664;BME280;10993;52.510;13.456;2022-10-16T17:19:35;-26632.00;;;16.43;82.73
21664;BME280;10993;52.510;13.456;2022-10-16T17:24:35;-26633.69;;;16.49;83.53
21664;BME280;10993;52.510;13.456;2022-10-16T17:29:37;-26627.00;;;16.27;84.58
21664;BME280;10993;52.510;13.456;2022-10-16T17:34:37;-26616.28;;;15.91;85.88
21664;BME280;10993;52.510;13.456;2022-10-16T17:39:37;-26610.69;;;15.73;87.67
21664;BME280;10993;52.510;13.456;2022-10-16T17:44:39;-26618.63;;;15.99;86.80
21664;BME280;10993;52.510;13.456;2022-10-16T17:49:39;-26614.56;;;15.85;87.24
21664;BME280;10993;52.510;13.456;2022-10-16T17:54:40;-26613.50;;;15.82;87.99
21664;BME280;10993;52.510;13.456;2022-10-16T17:59:42;-26609.91;;;15.70;89.99
21664;BME280;10993;52.510;13.456;2022-10-16T18:04:42;-26601.34;;;15.42;92.03
21664;BME280;10993;52.510;13.456;2022-10-16T18:09:43;-26607.41;;;15.62;91.95
21664;BME280;10993;52.510;13.456;2022-10-16T18:14:44;-26604.63;;;15.52;92.95
21664;BME280;10993;52.510;13.456;2022-10-16T18:19:45;-26610.22;;;15.71;92.35
21664;BME280;10993;52.510;13.456;2022-10-16T18:24:45;-26612.09;;;15.77;93.76
21664;BME280;10993;52.510;13.456;2022-10-16T18:29:47;-26608.97;;;15.67;95.80
21664;BME280;10993;52.510;13.456;2022-10-16T18:34:47;-26598.53;;;15.32;97.59
21664;BME280;10993;52.510;13.456;2022-10-16T18:39:48;-26598.84;;;15.33;98.28
21664;BME280;10993;52.510;13.456;2022-10-16T18:44:50;-26590.91;;;15.07;99.83
21664;BME280;10993;52.510;13.456;2022-10-16T18:49:50;-26584.69;;;14.86;100.00
21664;BME280;10993;52.510;13.456;2022-10-16T18:54:54;-26581.25;;;14.75;100.00
21664;BME280;10993;52.510;13.456;2022-10-16T18:59:56;-26575.63;;;14.57;100.00
21664;BME280;10993;52.510;13.456;2022-10-16T19:04:57;-26580.78;;;14.74;100.00
21664;BME280;10993;52.510;13.456;2022-10-16T19:09:58;-26582.50;;;14.79;100.00
21664;BME280;10993;52.510;13.456;2022-10-16T19:14:59;-26590.13;;;15.05;100.00
21664;BME280;10993;52.510;13.456;2022-10-16T19:20:00;-26593.88;;;15.17;100.00
21664;BME280;10993;52.510;13.456;2022-10-16T19:25:00;-26588.88;;;15.00;100.00
21664;BME280;10993;52.510;13.456;2022-10-16T19:30:03;-26583.28;;;14.82;100.00
21664;BME280;10993;52.510;13.456;2022-10-16T19:35:03;-26582.81;;;14.80;100.00
21664;BME280;10993;52.510;13.456;2022-10-16T19:40:05;-26583.44;;;14.82;100.00
21664;BME280;10993;52.510;13.456;2022-10-16T19:45:08;-26587.78;;;14.97;100.00
21664;BME280;10993;52.510;13.456;2022-10-16T19:50:09;-26590.28;;;15.05;100.00
21664;BME280;10993;52.510;13.456;2022-10-16T19:55:09;-26590.59;;;15.06;100.00
21664;BME280;10993;52.510;13.456;2022-10-16T20:00:12;-26587.31;;;14.95;100.00
21664;BME280;10993;52.510;13.456;2022-10-16T20:05:13;-26596.06;;;15.24;100.00
21664;BME280;10993;52.510;13.456;2022-10-16T20:10:13;-26589.34;;;15.02;100.00
21664;BME280;10993;52.510;13.456;2022-10-16T20:15:15;-26591.53;;;15.09;100.00
21664;BME280;10993;52.510;13.456;2022-10-16T20:20:15;-26585.94;;;14.91;100.00
21664;BME280;10993;52.510;13.456;2022-10-16T20:25:16;-26578.28;;;14.65;100.00
21664;BME280;10993;52.510;13.456;2022-10-16T20:30:18;-26575.16;;;14.55;100.00
21664;BME280;10993;52.510;13.456;2022-10-16T20:35:18;-26572.34;;;14.46;100.00
21664;BME280;10993;52.510;13.456;2022-10-16T20:40:18;-26562.22;;;14.12;100.00
21664;BME280;10993;52.510;13.456;2022-10-16T20:45:20;-26559.88;;;14.05;100.00
21664;BME280;10993;52.510;13.456;2022-10-16T20:50:21;-26562.84;;;14.14;100.00
21664;BME280;10993;52.510;13.456;2022-10-16T20:55:21;-26565.03;;;14.22;100.00
21664;BME280;10993;52.510;13.456;2022-10-16T21:00:23;-26570.97;;;14.41;100.00
21664;BME280;10993;52.510;13.456;2022-10-16T21:05:23;-26575.00;;;14.55;100.00
21664;BME280;10993;52.510;13.456;2022-10-16T21:10:28;-26571.59;;;14.43;100.00
21664;BME280;10993;52.510;13.456;2022-10-16T21:15:30;-26571.59;;;14.43;100.00
21664;BME280;10993;52.510;13.456;2022-10-16T21:20:30;-26574.22;;;14.52;100.00
21664;BME280;10993;52.510;13.456;2022-10-16T21:25:31;-26573.91;;;14.51;100.00
21664;BME280;10993;52.510;13.456;2022-10-16T21:30:32;-26576.25;;;14.59;100.00
21664;BME280;10993;52.510;13.456;2022-10-16T21:35:33;-26581.09;;;14.75;100.00
21664;BME280;10993;52.510;13.456;2022-10-16T21:40:33;-26578.59;;;14.66;100.00
21664;BME280;10993;52.510;13.456;2022-10-16T21:45:35;-26574.69;;;14.53;100.00
21664;BME280;10993;52.510;13.456;2022-10-16T21:50:35;-26582.50;;;14.79;100.00
21664;BME280;10993;52.510;13.456;2022-10-16T21:55:36;-26576.25;;;14.59;100.00
21664;BME280;10993;52.510;13.456;2022-10-16T22:00:37;-26575.31;;;14.56;100.00
21664;BME280;10993;52.510;13.456;2022-10-16T22:05:38;-26574.69;;;14.53;100.00
21664;BME280;10993;52.510;13.456;2022-10-16T22:10:38;-26570.66;;;14.40;100.00
21664;BME280;10993;52.510;13.456;2022-10-16T22:15:47;-26575.94;;;14.58;100.00
21664;BME280;10993;52.510;13.456;2022-10-16T22:20:48;-26573.13;;;14.48;100.00
21664;BME280;10993;52.510;13.456;2022-10-16T22:25:48;-26573.00;;;14.48;100.00
21664;BME280;10993;52.510;13.456;2022-10-16T22:30:50;-26562.69;;;14.14;100.00
21664;BME280;10993;52.510;13.456;2022-10-16T22:35:50;-26561.59;;;14.10;100.00
21664;BME280;10993;52.510;13.456;2022-10-16T22:40:50;-26567.69;;;14.30;100.00
21664;BME280;10993;52.510;13.456;2022-10-16T22:45:52;-26560.66;;;14.07;100.00
21664;BME280;10993;52.510;13.456;2022-10-16T22:50:53;-26559.56;;;14.03;100.00
21664;BME280;10993;52.510;13.456;2022-10-16T22:55:54;-26556.91;;;13.95;100.00
21664;BME280;10993;52.510;13.456;2022-10-16T23:00:56;-26552.38;;;13.80;100.00
21664;BME280;10993;52.510;13.456;2022-10-16T23:05:56;-26563.00;;;14.15;100.00
21664;BME280;10993;52.510;13.456;2022-10-16T23:10:56;-26565.34;;;14.23;100.00
21664;BME280;10993;52.510;13.456;2022-10-16T23:16:02;-26573.44;;;14.49;100.00
21664;BME280;10993;52.510;13.456;2022-10-16T23:21:06;-26572.22;;;14.45;100.00
21664;BME280;10993;52.510;13.456;2022-10-16T23:26:08;-26572.22;;;14.45;100.00
21664;BME280;10993;52.510;13.456;2022-10-16T23:31:11;-26554.91;;;13.88;100.00
21664;BME280;10993;52.510;13.456;2022-10-16T23:36:14;-26582.81;;;14.80;100.00
21664;BME280;10993;52.510;13.456;2022-10-16T23:41:15;-26586.53;;;14.93;100.00
21664;BME280;10993;52.510;13.456;2022-10-16T23:46:18;-26587.00;;;14.94;100.00
21664;BME280;10993;52.510;13.456;2022-10-16T23:51:18;-26588.41;;;14.99;100.00
21664;BME280;10993;52.510;13.456;2022-10-16T23:56:19;-26586.88;;;14.94;100.00
